Anabel, Missouri
Current Conditions -  °F | °C
As of 12:55 PM on Friday 31 Oct 2014 (Local Time) from KIRK Reporting Station
Clear Clear  
Wind Chill: 34°   Ceiling: Unl
Heat Index: 42°   Visibility: 10mi
Dew Point: 20°   Wind: 16mph
Humidity: 41%   Direction: 330°NNW
Pressure: 30.43"   Gusts: 22mph
Location:  39.75°N, 92.34°W
Report Text: KIRK 311755Z AUTO 33014G19KT 10SM CLR 06/M07 A3043 RMK AO2 SLP311 T00561067 10056 21006 50004
Loading
Personal Weather Stations






























Interactive Weather Map New forecast layout! Learn more

10-Day Weather Forecast

Advertisements
Track Severe Weather on mobile